Time;durP1;ratioP1;P1;durP2;ratioP2;P2;SDS_P1;SDS_P2;PMS_P1;PMS_P2;Temp;Humidity;BMP_temperature;BMP_pressure;BME280_temperature;BME280_humidity;BME280_pressure;Samples;Min_cycle;Max_cycle;Signal;HPM_P1;HPM_P2
2021/03/31 00:00:25;;;;;;;4.60;2.00;;;7.40;83.40;;;;;;5059214;28;20292;-60
2021/03/31 00:02:55;;;;;;;5.07;2.00;;;7.40;83.70;;;;;;5060700;28;20101;-59
2021/03/31 00:05:21;;;;;;;3.38;1.70;;;7.30;82.50;;;;;;5061143;28;20072;-58
2021/03/31 00:07:47;;;;;;;;;;;7.40;82.20;;;;;;5061232;28;20692;-59
2021/03/31 00:10:21;;;;;;;4.88;2.00;;;7.40;81.90;;;;;;5060776;28;19921;-58
2021/03/31 00:12:47;;;;;;;4.10;2.30;;;7.40;82.60;;;;;;5060416;28;20083;-58
2021/03/31 00:15:13;;;;;;;;;;;7.30;83.30;;;;;;5049633;28;20073;-58
2021/03/31 00:17:39;;;;;;;6.32;2.10;;;7.30;83.70;;;;;;5047633;28;19928;-58
2021/03/31 00:20:04;;;;;;;;;;;7.20;84.80;;;;;;5047531;28;20041;-55
2021/03/31 00:22:30;;;;;;;3.88;2.13;;;7.20;83.40;;;;;;5047392;28;19928;-54
2021/03/31 00:24:56;;;;;;;;;;;7.20;84.80;;;;;;5048010;28;20056;-57
2021/03/31 00:27:21;;;;;;;5.22;1.83;;;7.20;83.80;;;;;;5047541;28;19921;-57
2021/03/31 00:29:48;;;;;;;;;;;7.20;84.60;;;;;;5047948;28;20098;-60
2021/03/31 00:32:14;;;;;;;6.43;2.20;;;7.20;84.10;;;;;;5047307;28;20594;-57
2021/03/31 00:34:40;;;;;;;5.45;2.40;;;7.20;84.80;;;;;;5047645;28;20171;-58
2021/03/31 00:37:05;;;;;;;;;;;7.20;85.70;;;;;;5046317;28;20033;-57
2021/03/31 00:39:31;;;;;;;5.18;1.90;;;7.20;85.70;;;;;;5042310;28;19916;-57
2021/03/31 00:41:56;;;;;;;;;;;7.10;85.90;;;;;;5047521;28;20417;-58
2021/03/31 00:44:22;;;;;;;7.93;2.58;;;7.10;86.20;;;;;;5046423;28;20296;-59
2021/03/31 00:46:47;;;;;;;;;;;7.00;85.60;;;;;;5047076;28;20047;-58
2021/03/31 00:49:13;;;;;;;11.48;2.78;;;7.00;85.80;;;;;;5047474;28;19916;-59
2021/03/31 00:51:38;;;;;;;;;;;7.00;86.40;;;;;;5046835;28;20037;-56
2021/03/31 00:54:04;;;;;;;6.40;1.85;;;6.90;86.10;;;;;;5047111;28;19971;-52
2021/03/31 00:56:30;;;;;;;;;;;7.00;85.90;;;;;;5047203;28;20094;-59
2021/03/31 00:58:56;;;;;;;8.35;2.40;;;7.00;86.70;;;;;;5046773;28;20172;-55
2021/03/31 01:01:22;;;;;;;;;;;7.00;86.60;;;;;;5045940;28;20041;-52
2021/03/31 01:03:48;;;;;;;4.88;2.55;;;6.90;86.00;;;;;;5046711;28;19920;-59
2021/03/31 01:06:13;;;;;;;;;;;6.90;86.60;;;;;;5043110;28;20034;-59
2021/03/31 01:08:39;;;;;;;11.68;3.00;;;6.90;87.80;;;;;;5033376;28;19921;-57
2021/03/31 01:11:04;;;;;;;;;;;6.80;87.00;;;;;;5047160;28;20175;-55
2021/03/31 01:14:17;;;;;;;9.23;2.45;;;6.70;88.20;;;;;;5046498;28;19916;-58
2021/03/31 01:16:47;;;;;;;5.70;2.30;;;6.80;87.50;;;;;;5045442;28;20041;-57
2021/03/31 01:19:38;;;;;;;9.70;3.17;;;6.70;87.50;;;;;;5046648;28;20316;-54
2021/03/31 01:22:34;;;;;;;9.48;2.75;;;6.60;88.60;;;;;;5046083;28;20560;-54
2021/03/31 01:25:21;;;;;;;7.50;2.45;;;6.60;90.10;;;;;;5046180;28;20169;-57
2021/03/31 01:27:49;;;;;;;;;;;6.60;89.30;;;;;;5044775;28;20044;-58
2021/03/31 01:30:29;;;;;;;8.68;2.75;;;6.60;90.40;;;;;;5045904;28;20054;-57
2021/03/31 01:33:01;;;;;;;6.18;2.53;;;6.60;90.60;;;;;;5046350;28;20045;-58
2021/03/31 01:35:27;;;;;;;9.70;3.35;;;6.60;90.50;;;;;;5045641;28;20486;-56
2021/03/31 01:38:01;;;;;;;8.25;2.80;;;6.60;90.20;;;;;;5046202;28;20037;-57
2021/03/31 01:40:28;;;;;;;8.93;2.80;;;6.60;90.50;;;;;;5046182;28;20044;-59
2021/03/31 01:43:01;;;;;;;6.32;2.88;;;6.50;90.40;;;;;;5045340;28;20052;-58
2021/03/31 01:45:33;;;;;;;4.97;2.63;;;6.50;90.50;;;;;;5037990;28;20074;-60
2021/03/31 01:48:06;;;;;;;10.93;2.30;;;6.60;90.40;;;;;;5045576;28;20044;-57
2021/03/31 01:50:33;;;;;;;6.15;2.70;;;6.60;90.20;;;;;;5045498;28;20594;-59
2021/03/31 01:53:01;;;;;;;7.15;2.55;;;6.60;90.60;;;;;;5046178;28;20128;-57
2021/03/31 01:55:28;;;;;;;14.23;2.72;;;6.60;90.90;;;;;;5045746;28;20052;-59
2021/03/31 01:57:54;;;;;;;6.63;2.75;;;6.60;90.90;;;;;;5046845;28;20142;-58
2021/03/31 02:00:21;;;;;;;9.45;2.83;;;6.60;90.40;;;;;;5045467;28;20076;-59
2021/03/31 02:02:55;;;;;;;5.80;2.67;;;6.70;90.50;;;;;;5045740;28;20044;-53
2021/03/31 02:05:22;;;;;;;6.20;3.00;;;6.70;90.70;;;;;;5046090;28;20056;-58
2021/03/31 02:07:48;;;;;;;7.53;3.05;;;6.70;91.00;;;;;;5044366;28;20044;-55
2021/03/31 02:10:15;;;;;;;6.53;2.97;;;6.60;90.40;;;;;;5045809;28;20048;-58
2021/03/31 02:12:42;;;;;;;4.45;2.35;;;6.60;90.70;;;;;;5044838;28;20049;-55
2021/03/31 02:15:12;;;;;;;6.95;2.97;;;6.60;90.80;;;;;;5043778;28;20033;-58
2021/03/31 02:17:38;;;;;;;6.35;2.78;;;6.60;90.40;;;;;;5044965;28;20045;-59
2021/03/31 02:20:05;;;;;;;6.80;3.00;;;6.60;90.70;;;;;;5045349;28;20044;-57
2021/03/31 02:22:32;;;;;;;9.02;3.40;;;6.50;91.00;;;;;;5045232;28;20048;-56
2021/03/31 02:24:58;;;;;;;5.13;2.60;;;6.50;91.50;;;;;;5045832;28;20116;-55
2021/03/31 02:27:24;;;;;;;;;;;6.50;91.30;;;;;;5045535;28;20125;-57
2021/03/31 02:29:50;;;;;;;7.55;3.25;;;6.40;91.20;;;;;;5040996;28;20312;-56
2021/03/31 02:32:21;;;;;;;7.53;2.40;;;6.40;91.60;;;;;;5061749;28;20045;-59
2021/03/31 02:34:49;;;;;;;7.93;3.95;;;6.50;91.10;;;;;;5065336;28;20036;-58
2021/03/31 02:37:16;;;;;;;7.97;2.95;;;6.50;91.60;;;;;;5064955;28;20044;-56
2021/03/31 02:39:45;;;;;;;7.72;3.05;;;6.50;91.10;;;;;;5064517;28;20063;-59
2021/03/31 02:42:14;;;;;;;7.30;3.10;;;6.50;91.50;;;;;;5064799;28;20045;-59
2021/03/31 02:44:42;;;;;;;8.73;3.13;;;6.40;91.10;;;;;;5064526;28;20036;-58
2021/03/31 02:47:11;;;;;;;5.30;3.20;;;6.40;91.40;;;;;;5048273;28;20455;-59
2021/03/31 02:49:39;;;;;;;11.57;2.88;;;6.40;92.00;;;;;;5045410;28;20041;-59
2021/03/31 02:52:06;;;;;;;9.43;3.00;;;6.40;92.50;;;;;;5044528;28;20630;-60
2021/03/31 02:54:32;;;;;;;12.18;3.13;;;6.30;91.80;;;;;;5044024;28;20098;-61
2021/03/31 02:56:58;;;;;;;9.85;3.00;;;6.30;91.40;;;;;;5044963;28;20039;-54
2021/03/31 02:59:23;;;;;;;;;;;6.30;92.20;;;;;;5045029;28;20028;-51
2021/03/31 03:01:49;;;;;;;5.70;2.90;;;6.20;92.40;;;;;;5044069;28;20705;-55
2021/03/31 03:04:14;;;;;;;;;;;6.30;92.30;;;;;;5045012;28;20049;-56
2021/03/31 03:06:41;;;;;;;5.07;2.63;;;6.20;91.90;;;;;;5045053;28;20400;-56
2021/03/31 03:09:07;;;;;;;6.68;2.90;;;6.20;92.00;;;;;;5044316;28;20519;-54
2021/03/31 03:11:34;;;;;;;8.40;3.40;;;6.10;92.40;;;;;;5059535;28;20045;-58
2021/03/31 03:14:01;;;;;;;6.15;2.50;;;6.20;91.90;;;;;;5043019;28;20059;-56
2021/03/31 03:16:27;;;;;;;16.33;3.22;;;6.20;92.10;;;;;;5036930;28;20145;-56
2021/03/31 03:18:53;;;;;;;10.90;3.45;;;6.20;92.30;;;;;;5043836;28;20083;-59
2021/03/31 03:21:19;;;;;;;;;;;6.10;92.60;;;;;;5045335;28;20045;-59
2021/03/31 03:23:46;;;;;;;5.50;2.95;;;6.00;92.80;;;;;;5044489;28;20024;-60
2021/03/31 03:26:14;;;;;;;11.75;3.55;;;6.00;92.40;;;;;;5045467;28;20079;-56
2021/03/31 03:28:46;;;;;;;11.85;3.45;;;5.90;93.10;;;;;;5044610;28;20389;-59
2021/03/31 03:31:12;;;;;;;12.55;3.42;;;6.00;93.10;;;;;;5042387;28;20181;-56
2021/03/31 03:33:39;;;;;;;7.07;3.00;;;6.10;92.90;;;;;;5044360;28;20555;-50
2021/03/31 03:36:07;;;;;;;8.50;3.33;;;6.00;93.10;;;;;;5045158;28;20773;-50
2021/03/31 03:38:36;;;;;;;5.93;3.00;;;6.00;93.00;;;;;;5044315;28;20072;-56
2021/03/31 03:41:11;;;;;;;5.75;3.03;;;5.90;93.10;;;;;;5045107;28;20091;-54
2021/03/31 03:43:40;;;;;;;9.13;3.10;;;6.00;93.00;;;;;;5043946;28;20041;-52
2021/03/31 03:46:07;;;;;;;9.60;3.53;;;5.90;92.70;;;;;;5043682;28;20061;-55
2021/03/31 03:48:32;;;;;;;5.97;3.03;;;5.90;93.20;;;;;;5044676;28;20121;-50
2021/03/31 03:50:58;;;;;;;;;;;6.00;92.80;;;;;;5047912;28;20440;-56
2021/03/31 03:53:28;;;;;;;10.82;4.13;;;5.90;92.80;;;;;;5047829;28;19967;-55
2021/03/31 03:55:58;;;;;;;13.02;3.17;;;5.80;93.10;;;;;;5048558;28;20041;-54
2021/03/31 03:58:25;;;;;;;7.38;4.25;;;5.80;93.60;;;;;;5047597;28;20567;-49
2021/03/31 04:00:50;;;;;;;8.32;3.15;;;5.70;93.60;;;;;;5047194;28;20120;-55
2021/03/31 04:03:16;;;;;;;;;;;5.70;93.90;;;;;;5047909;28;20477;-57
2021/03/31 04:05:41;;;;;;;7.40;3.33;;;5.80;93.90;;;;;;5047747;28;19921;-55
2021/03/31 04:08:07;;;;;;;11.95;3.45;;;5.80;93.90;;;;;;5063102;28;20465;-46
2021/03/31 04:10:34;;;;;;;;;;;5.80;94.00;;;;;;5048233;28;20203;-48
2021/03/31 04:13:00;;;;;;;;;;;5.90;94.20;;;;;;5048409;28;19917;-53
2021/03/31 04:15:27;;;;;;;6.37;3.00;;;5.90;94.50;;;;;;5046388;28;19928;-54
2021/03/31 04:17:54;;;;;;;7.85;2.83;;;5.90;94.30;;;;;;5047480;28;20341;-54
2021/03/31 04:20:22;;;;;;;10.10;3.10;;;5.80;94.50;;;;;;5047784;28;20045;-52
2021/03/31 04:22:49;;;;;;;6.60;2.97;;;5.90;94.60;;;;;;5046959;28;20818;-56
2021/03/31 04:25:17;;;;;;;6.85;2.80;;;5.90;94.50;;;;;;5048222;28;20155;-56
2021/03/31 04:27:48;;;;;;;9.98;3.15;;;5.90;94.70;;;;;;5047176;28;20037;-54
2021/03/31 04:30:14;;;;;;;12.38;3.38;;;5.90;94.80;;;;;;5062241;28;20099;-57
2021/03/31 04:32:44;;;;;;;7.00;3.42;;;5.80;95.10;;;;;;5039237;28;20075;-57
2021/03/31 04:35:10;;;;;;;7.07;3.40;;;5.80;95.50;;;;;;5049066;28;20053;-56
2021/03/31 04:37:36;;;;;;;17.00;3.88;;;6.00;95.80;;;;;;5048250;28;20120;-58
2021/03/31 04:40:09;;;;;;;10.55;4.15;;;5.90;94.60;;;;;;5047919;28;20094;-57
2021/03/31 04:42:35;;;;;;;8.38;3.22;;;6.00;95.60;;;;;;5032553;23;20634;-58
2021/03/31 04:45:00;;;;;;;;;;;6.10;95.50;;;;;;4991303;28;20050;-57
2021/03/31 04:47:26;;;;;;;14.95;4.70;;;6.10;95.60;;;;;;5025209;28;19974;-55
2021/03/31 04:49:51;;;;;;;;;;;6.10;96.10;;;;;;5026964;22;20053;-68
2021/03/31 04:52:17;;;;;;;5.05;3.10;;;6.10;96.30;;;;;;5026831;28;19921;-68
2021/03/31 04:54:44;;;;;;;;;;;6.20;95.70;;;;;;5027531;28;20800;-69
2021/03/31 04:57:09;;;;;;;6.22;3.50;;;6.20;95.90;;;;;;5043329;28;19992;-72
2021/03/31 04:59:35;;;;;;;;;;;6.20;95.90;;;;;;5003071;28;20129;-69
2021/03/31 05:02:02;;;;;;;8.00;3.40;;;6.20;96.00;;;;;;5002878;28;19918;-71
2021/03/31 05:04:28;;;;;;;10.75;4.55;;;6.20;96.00;;;;;;5005005;28;20041;-68
2021/03/31 05:06:54;;;;;;;;;;;6.30;95.70;;;;;;4998979;28;20038;-69
2021/03/31 05:09:19;;;;;;;8.73;3.80;;;6.30;95.70;;;;;;5008198;28;19917;-69
2021/03/31 05:11:45;;;;;;;;;;;6.40;95.20;;;;;;5006461;28;20048;-70
2021/03/31 05:14:11;;;;;;;8.00;4.00;;;6.50;95.30;;;;;;5005535;28;19917;-69
2021/03/31 05:16:37;;;;;;;;;;;6.40;95.40;;;;;;5000722;28;20631;-71
2021/03/31 05:19:03;;;;;;;12.85;3.47;;;6.50;95.20;;;;;;5003769;28;19921;-70
2021/03/31 05:21:28;;;;;;;;;;;6.50;95.40;;;;;;5006237;28;20043;-70
2021/03/31 05:23:54;;;;;;;10.00;4.40;;;6.60;95.40;;;;;;5006980;28;19966;-70
2021/03/31 05:26:20;;;;;;;;;;;6.60;95.10;;;;;;5008787;28;20596;-68
2021/03/31 05:28:46;;;;;;;6.05;3.35;;;6.80;95.20;;;;;;5005674;28;19914;-70
2021/03/31 05:31:11;;;;;;;;;;;6.90;94.60;;;;;;4994833;28;20126;-71
2021/03/31 05:33:37;;;;;;;8.73;3.35;;;7.20;94.80;;;;;;4999338;28;20405;-72
2021/03/31 05:36:03;;;;;;;;;;;8.00;93.20;;;;;;5012513;28;20267;-72
2021/03/31 05:38:29;;;;;;;14.07;4.30;;;;;;;;;;5026652;28;20046;-72
2021/03/31 05:40:59;;;;;;;16.88;4.60;;;;;;;;;;5027640;28;20257;-69
2021/03/31 05:43:26;;;;;;;9.60;4.65;;;;;;;;;;5017387;28;20041;-69
2021/03/31 05:45:54;;;;;;;11.57;4.68;;;;;;;;;;5004899;28;20332;-71
2021/03/31 05:48:20;;;;;;;9.95;4.07;;;;;;;;;;5000473;28;20383;-72
2021/03/31 05:50:47;;;;;;;11.80;5.05;;;;;;;;;;4987054;28;20038;-70
2021/03/31 05:53:13;;;;;;;15.70;4.53;;;;;;;;;;4986765;28;20038;-70
2021/03/31 05:55:39;;;;;;;;;;;;;;;;;;4990600;28;20173;-68
2021/03/31 05:58:06;;;;;;;11.45;4.97;;;;;;;;;;4987041;28;19928;-72
2021/03/31 06:00:33;;;;;;;8.77;4.50;;;;;;;;;;4985259;28;20039;-75
2021/03/31 06:03:03;;;;;;;12.15;5.50;;;;;;;;;;4984443;28;20169;-72
2021/03/31 06:05:31;;;;;;;10.20;4.30;;;;;;;;;;4991363;28;20056;-72
2021/03/31 06:07:58;;;;;;;11.68;4.22;;;;;;;;;;5004991;28;20045;-72
2021/03/31 06:10:25;;;;;;;10.73;4.70;;;;;;;;;;5039325;28;20391;-70
2021/03/31 06:13:05;;;;;;;14.30;4.63;;;;;;;;;;5003246;28;20057;-70
2021/03/31 06:15:42;;;;;;;8.50;4.03;;;;;;;;;;4998308;28;20042;-71
2021/03/31 06:18:08;;;;;;;11.43;4.25;;;;;;;;;;5005673;28;20103;-72
2021/03/31 06:20:38;;;;;;;15.13;5.07;;;;;;;;;;5005537;28;20099;-70
2021/03/31 06:23:31;;;;;;;13.82;4.10;;;;;;;;;;5004625;28;20180;-72
2021/03/31 06:26:00;;;;;;;12.35;4.80;;;;;;;;;;4990993;28;20058;-70
2021/03/31 06:28:31;;;;;;;8.90;4.47;;;;;;;;;;4997195;28;20034;-73
2021/03/31 06:31:06;;;;;;;13.80;3.80;;;;;;;;;;4989657;28;20042;-72
2021/03/31 06:33:33;;;;;;;11.00;4.20;;;;;;;;;;4991125;28;20078;-71
2021/03/31 06:35:59;;;;;;;11.35;3.95;;;;;;;;;;5005529;28;20053;-74
2021/03/31 06:38:29;;;;;;;10.48;3.72;;;;;;;;;;5005759;28;20092;-70
2021/03/31 06:41:00;;;;;;;8.57;3.80;;;;;;;;;;5005184;28;20038;-72
2021/03/31 06:48:22;;;;;;;18.25;5.20;;;;;;;;;;4986056;28;20054;-70
2021/03/31 06:50:49;;;;;;;16.15;5.18;;;;;;;;;;5000494;28;20049;-71
2021/03/31 06:53:25;;;;;;;18.30;4.57;;;;;;;;;;4986396;28;20050;-71
2021/03/31 06:56:03;;;;;;;10.20;4.53;;;;;;;;;;4985894;28;20039;-73
2021/03/31 06:58:29;;;;;;;12.75;3.85;;;;;;;;;;4993561;28;20050;-73
2021/03/31 07:00:55;;;;;;;12.13;4.45;;;;;;;;;;5004387;28;20034;-72
2021/03/31 07:03:22;;;;;;;11.95;4.80;;;;;;;;;;5006157;28;20045;-71
2021/03/31 07:05:48;;;;;;;10.35;4.47;;;;;;;;;;5006616;28;20038;-76
2021/03/31 07:08:16;;;;;;;16.27;4.97;;;;;;;;;;5006288;28;20046;-73
2021/03/31 07:10:44;;;;;;;11.40;5.03;;;;;;;;;;5006466;28;20553;-72
2021/03/31 07:13:11;;;;;;;15.68;4.57;;;;;;;;;;5002627;28;20089;-73
2021/03/31 07:15:40;;;;;;;10.35;4.63;;;;;;;;;;5005333;28;20104;-73
2021/03/31 07:18:07;;;;;;;11.57;4.70;;;;;;;;;;5003131;28;20035;-74
2021/03/31 07:20:33;;;;;;;15.48;6.30;;;;;;;;;;5013017;28;20034;-74
2021/03/31 07:23:00;;;;;;;10.07;5.10;;;;;;;;;;5022325;28;20510;-72
2021/03/31 07:25:27;;;;;;;22.55;5.20;;;;;;;;;;5016198;28;20141;-75
2021/03/31 07:27:56;;;;;;;14.88;5.75;;;;;;;;;;5025097;28;20045;-74
2021/03/31 07:30:23;;;;;;;13.77;5.63;;;;;;;;;;5024806;28;20037;-71
2021/03/31 07:32:49;;;;;;;12.63;5.55;;;;;;;;;;5009876;28;20037;-73
2021/03/31 07:35:17;;;;;;;10.50;5.93;;;;;;;;;;5024972;28;20078;-71
2021/03/31 07:37:45;;;;;;;13.70;6.47;;;;;;;;;;5025001;28;20042;-73
2021/03/31 07:40:12;;;;;;;14.65;5.75;;;;;;;;;;5025007;28;20045;-74
2021/03/31 07:42:42;;;;;;;13.88;5.97;;;;;;;;;;5024028;28;20065;-74
2021/03/31 07:45:10;;;;;;;15.75;5.82;;;;;;;;;;5005988;28;20762;-73
2021/03/31 07:47:37;;;;;;;19.80;6.75;;;;;;;;;;4988135;28;20058;-75
2021/03/31 07:50:04;;;;;;;11.40;6.63;;;;;;;;;;4988678;28;20069;-72
2021/03/31 07:52:50;;;;;;;20.02;5.97;;;;;;;;;;4989318;28;20042;-74
2021/03/31 07:55:33;;;;;;;13.70;5.22;;;;;;;;;;4989077;28;20045;-73
2021/03/31 07:58:18;;;;;;;11.27;5.05;;;;;;;;;;4988450;28;20100;-70
2021/03/31 08:00:57;;;;;;;12.48;6.18;;;;;;;;;;4988207;28;20041;-72
2021/03/31 08:03:25;;;;;;;11.05;5.38;;;;;;;;;;4987684;28;20034;-72
2021/03/31 08:06:10;;;;;;;16.15;5.97;;;;;;;;;;4989763;28;20663;-73
2021/03/31 08:08:38;;;;;;;13.45;7.20;;;;;;;;;;5007899;28;20049;-75
2021/03/31 08:11:05;;;;;;;9.50;5.55;;;;;;;;;;5008029;28;20038;-72
2021/03/31 08:13:39;;;;;;;13.18;6.68;;;;;;;;;;5007801;28;20042;-70
2021/03/31 08:16:26;;;;;;;11.60;6.22;;;;;;;;;;5007822;28;20038;-75
2021/03/31 08:18:53;;;;;;;17.38;5.78;;;;;;;;;;5008235;28;20100;-73
2021/03/31 08:21:30;;;;;;;19.60;6.38;;;;;;;;;;5009872;28;20056;-71
2021/03/31 08:23:57;;;;;;;9.85;5.70;;;;;;;;;;5008876;28;20096;-70
2021/03/31 08:26:32;;;;;;;10.85;5.07;;;;;;;;;;5014813;28;20121;-72
2021/03/31 08:28:59;;;;;;;11.20;5.95;;;;;;;;;;5025299;28;20088;-75
2021/03/31 08:31:27;;;;;;;11.02;5.80;;;;;;;;;;5023090;28;20049;-74
2021/03/31 08:33:54;;;;;;;15.32;5.40;;;;;;;;;;5008465;28;20045;-74
2021/03/31 08:36:20;;;;;;;15.35;6.38;;;;;;;;;;4998445;28;20030;-75
2021/03/31 08:38:59;;;;;;;14.13;6.00;;;;;;;;;;4992701;28;20121;-71
2021/03/31 08:41:27;;;;;;;15.10;5.40;;;;;;;;;;4987324;28;20065;-71
2021/03/31 08:44:14;;;;;;;10.90;6.07;;;;;;;;;;4990608;28;20046;-72
2021/03/31 08:46:40;;;;;;;;;;;;;;;;;;5005480;28;20034;-74
2021/03/31 08:49:06;;;;;;;13.02;5.75;;;;;;;;;;5005784;28;19960;-72
2021/03/31 08:51:33;;;;;;;12.95;5.90;;;;;;;;;;5007327;28;20103;-74
2021/03/31 08:54:02;;;;;;;8.70;5.30;;;;;;;;;;5011035;28;20065;-74
2021/03/31 08:56:29;;;;;;;8.27;4.90;;;;;;;;;;5011396;28;20037;-74
2021/03/31 08:58:57;;;;;;;16.85;6.32;;;;;;;;;;5012528;28;20034;-74
2021/03/31 09:01:25;;;;;;;9.35;5.15;;;;;;;;;;5012343;28;20044;-74
2021/03/31 09:03:52;;;;;;;18.45;6.28;;;;;;;;;;5012080;28;20042;-73
2021/03/31 09:06:21;;;;;;;8.02;4.80;;;;;;;;;;5017012;28;20034;-75
2021/03/31 09:08:47;;;;;;;13.88;5.40;;;;;;;;;;5007437;28;20037;-70
2021/03/31 09:11:19;;;;;;;;;;;;;;;;;;5015598;28;20045;-77
2021/03/31 09:13:45;;;;;;;9.27;4.50;;;;;;;;;;5018483;28;20014;-73
2021/03/31 09:16:14;;;;;;;11.43;4.03;;;;;;;;;;5005839;28;20045;-75
2021/03/31 09:18:44;;;;;;;10.93;4.80;;;;;;;;;;5006269;28;20145;-72
2021/03/31 09:21:12;;;;;;;11.00;4.47;;;;;;;;;;5008036;28;20097;-74
2021/03/31 09:23:45;;;;;;;13.48;4.32;;;;;;;;;;5017752;28;20041;-76
2021/03/31 09:26:11;;;;;;;16.48;4.53;;;;;;;;;;5010042;28;20502;-75
2021/03/31 09:28:38;;;;;;;9.75;4.10;;;;;;;;;;5023011;28;20046;-71
2021/03/31 09:31:10;;;;;;;8.65;4.32;;;;;;;;;;5022461;28;20041;-73
2021/03/31 09:33:44;;;;;;;8.80;4.20;;;;;;;;;;5024884;28;20617;-76
2021/03/31 09:36:11;;;;;;;5.22;3.38;;;;;;;;;;5023995;28;20049;-75
2021/03/31 09:38:37;;;;;;;7.55;3.85;;;;;;;;;;5020544;28;20053;-70
2021/03/31 09:41:05;;;;;;;7.13;3.60;;;;;;;;;;5014569;28;20047;-73
2021/03/31 09:43:35;;;;;;;9.77;3.67;;;;;;;;;;5014760;28;20049;-72
2021/03/31 09:46:02;;;;;;;21.63;10.35;;;;;;;;;;5015515;28;20041;-73
2021/03/31 09:48:29;;;;;;;7.28;4.20;;;;;;;;;;5013419;28;20053;-75
2021/03/31 09:50:56;;;;;;;7.10;3.63;;;;;;;;;;5013858;28;20046;-76
2021/03/31 09:53:23;;;;;;;8.63;4.30;;;;;;;;;;5005085;28;20050;-72
2021/03/31 09:55:51;;;;;;;5.63;2.90;;;;;;;;;;5006039;28;20048;-74
2021/03/31 09:58:25;;;;;;;10.05;4.40;;;;;;;;;;5005795;28;20050;-74
2021/03/31 10:00:52;;;;;;;6.60;4.45;;;;;;;;;;5005325;28;20034;-72
2021/03/31 10:03:19;;;;;;;8.70;3.42;;;;;;;;;;5005729;28;20041;-71
2021/03/31 10:05:46;;;;;;;5.03;2.72;;;;;;;;;;5006342;28;20041;-75
2021/03/31 10:08:21;;;;;;;8.07;3.88;;;;;;;;;;4985485;28;20068;-76
2021/03/31 10:10:48;;;;;;;16.60;7.05;;;;;;;;;;4986336;28;20050;-76
2021/03/31 10:13:16;;;;;;;13.57;7.95;;;;;;;;;;5003383;28;20046;-74
2021/03/31 10:15:45;;;;;;;8.68;3.78;;;;;;;;;;5021563;28;20057;-72
2021/03/31 10:18:13;;;;;;;10.38;4.03;;;;;;;;;;5013465;28;20035;-74
2021/03/31 10:20:45;;;;;;;9.30;2.85;;;;;;;;;;5010863;28;20123;-74
2021/03/31 10:23:24;;;;;;;6.95;3.25;;;;;;;;;;5024632;28;20046;-73
2021/03/31 10:25:51;;;;;;;6.50;2.65;;;;;;;;;;5013389;28;20048;-73
2021/03/31 10:28:36;;;;;;;9.10;3.30;;;;;;;;;;5004227;28;20042;-74
2021/03/31 10:31:18;;;;;;;5.93;3.00;;;;;;;;;;4999733;28;20058;-75
2021/03/31 10:33:45;;;;;;;7.50;2.83;;;;;;;;;;5010315;28;20046;-76
2021/03/31 10:36:13;;;;;;;12.82;3.60;;;;;;;;;;5000809;28;20129;-73
2021/03/31 10:38:49;;;;;;;6.50;3.63;;;;;;;;;;5013904;28;20120;-76
2021/03/31 10:47:09;;;;;;;5.70;2.53;;;;;;;;;;5008978;28;20038;-75
2021/03/31 10:49:43;;;;;;;7.97;3.13;;;;;;;;;;5005272;28;20038;-75
2021/03/31 10:52:25;;;;;;;13.13;2.80;;;;;;;;;;5006756;28;20088;-71
2021/03/31 10:54:51;;;;;;;7.82;3.22;;;;;;;;;;5006678;28;20121;-74
2021/03/31 10:57:18;;;;;;;11.05;4.72;;;;;;;;;;5008300;28;20048;-76
2021/03/31 10:59:44;;;;;;;7.30;2.80;;;;;;;;;;5012257;28;20038;-75
2021/03/31 11:02:11;;;;;;;9.52;2.72;;;;;;;;;;4995620;28;20046;-76
2021/03/31 11:04:37;;;;;;;7.65;2.53;;;;;;;;;;5010705;28;20037;-73
2021/03/31 11:07:05;;;;;;;6.25;2.88;;;;;;;;;;5015425;28;20036;-75
2021/03/31 11:09:31;;;;;;;8.40;3.13;;;;;;;;;;5006384;28;20042;-74
2021/03/31 11:11:57;;;;;;;5.93;2.70;;;;;;;;;;5009937;28;20049;-76
2021/03/31 11:14:32;;;;;;;12.13;2.83;;;;;;;;;;5005133;28;20091;-71
2021/03/31 11:17:05;;;;;;;6.95;2.97;;;;;;;;;;5013691;28;20044;-77
2021/03/31 11:27:30;;;;;;;7.43;2.60;;;;;;;;;;5009087;28;20126;-73
2021/03/31 11:29:56;;;;;;;6.85;2.20;;;;;;;;;;5021399;28;20065;-76
2021/03/31 11:32:25;;;;;;;4.53;2.10;;;;;;;;;;5023769;28;20045;-74
2021/03/31 11:34:51;;;;;;;7.15;3.25;;;;;;;;;;5024327;28;20069;-72
2021/03/31 11:37:17;;;;;;;7.85;2.70;;;;;;;;;;5024820;28;20041;-74
2021/03/31 11:39:43;;;;;;;11.20;5.28;;;;;;;;;;5024023;28;20037;-74
2021/03/31 11:42:10;;;;;;;16.23;6.57;;;;;;;;;;5024340;28;20045;-74
2021/03/31 11:44:36;;;;;;;15.88;6.95;;;;;;;;;;5006302;28;20128;-75
2021/03/31 11:47:03;;;;;;;10.90;4.93;;;;;;;;;;4986933;28;20046;-77
2021/03/31 11:49:29;;;;;;;9.40;4.40;;;;;;;;;;4985145;28;20046;-72
2021/03/31 11:51:55;;;;;;;9.02;4.65;;;;;;;;;;4984986;28;20030;-74
2021/03/31 11:54:22;;;;;;;10.57;4.25;;;;;;;;;;4987713;28;20117;-72
2021/03/31 11:56:50;;;;;;;7.88;2.45;;;;;;;;;;4985792;28;20053;-75
2021/03/31 11:59:17;;;;;;;10.18;2.72;;;;;;;;;;4986403;28;20192;-73
2021/03/31 12:01:44;;;;;;;7.88;2.22;;;;;;;;;;4984297;28;20541;-73
2021/03/31 12:04:10;;;;;;;8.07;2.83;;;;;;;;;;4984763;28;20046;-72
2021/03/31 12:06:40;;;;;;;10.45;2.10;;;;;;;;;;4991507;28;20038;-75
2021/03/31 12:09:08;;;;;;;4.45;2.20;;;;;;;;;;4987593;28;20046;-74
2021/03/31 12:11:34;;;;;;;10.75;3.33;;;;;;;;;;4996014;28;20491;-74
2021/03/31 12:14:01;;;;;;;13.55;2.83;;;;;;;;;;5029972;28;20077;-73
2021/03/31 12:16:28;;;;;;;6.22;2.30;;;;;;;;;;4996415;28;20042;-74
2021/03/31 12:18:54;;;;;;;9.18;2.72;;;;;;;;;;4999930;28;20030;-75
2021/03/31 12:21:22;;;;;;;7.15;3.22;;;;;;;;;;4999523;28;20113;-75
2021/03/31 12:23:48;;;;;;;6.15;2.30;;;;;;;;;;4991194;28;20447;-73
2021/03/31 12:26:16;;;;;;;10.02;2.50;;;;;;;;;;5005878;28;20084;-73
2021/03/31 12:28:50;;;;;;;7.07;2.28;;;;;;;;;;5024910;28;20041;-73
2021/03/31 12:31:16;;;;;;;8.35;2.17;;;;;;;;;;5018277;28;20033;-76
2021/03/31 12:33:42;;;;;;;5.43;2.15;;;;;;;;;;5007991;28;20437;-72
2021/03/31 12:36:09;;;;;;;12.90;3.28;;;;;;;;;;4996264;28;20064;-71
2021/03/31 12:38:35;;;;;;;9.93;2.83;;;;;;;;;;5000630;28;20045;-74
2021/03/31 12:41:05;;;;;;;13.23;2.92;;;;;;;;;;5030996;28;20045;-74
2021/03/31 12:43:32;;;;;;;6.55;1.88;;;;;;;;;;5000047;28;20041;-72
2021/03/31 12:45:59;;;;;;;14.50;5.57;;;;;;;;;;5001343;28;20104;-75
2021/03/31 12:48:26;;;;;;;16.73;6.70;;;;;;;;;;5035708;28;20056;-74
2021/03/31 12:50:57;;;;;;;22.98;7.55;;;;;;;;;;5024337;28;20037;-72
2021/03/31 12:53:31;;;;;;;16.83;4.20;;;;;;;;;;4987765;28;20054;-74
2021/03/31 12:55:58;;;;;;;6.93;4.35;;;;;;;;;;4988705;28;20034;-76
2021/03/31 12:58:25;;;;;;;9.75;2.92;;;;;;;;;;4988719;28;20042;-76
2021/03/31 13:00:54;;;;;;;10.15;2.72;;;;;;;;;;4989547;28;20042;-74
2021/03/31 13:03:20;;;;;;;5.95;2.38;;;;;;;;;;5007053;28;20073;-76
2021/03/31 13:05:46;;;;;;;6.28;2.58;;;;;;;;;;5034979;28;20044;-74
2021/03/31 13:08:14;;;;;;;8.60;2.25;;;;;;;;;;5044344;28;20069;-75
2021/03/31 13:10:42;;;;;;;6.60;2.30;;;;;;;;;;5027722;28;20045;-72
2021/03/31 13:26:35;;;;;;;4.00;2.00;;;;;;;;;;5008148;28;20538;-73
2021/03/31 13:29:31;;;;;;;7.00;2.22;;;;;;;;;;5006277;28;20049;-72
2021/03/31 13:32:00;;;;;;;5.07;2.20;;;;;;;;;;4991995;28;20041;-75
2021/03/31 13:34:29;;;;;;;8.57;2.67;;;;;;;;;;5005867;28;20098;-76
2021/03/31 13:37:18;;;;;;;6.65;2.15;;;;;;;;;;5008627;28;20048;-82
2021/03/31 13:39:52;;;;;;;9.63;2.35;;;;;;;;;;5005397;28;20057;-73
2021/03/31 13:42:19;;;;;;;9.77;1.60;;;;;;;;;;5016153;28;20050;-76
2021/03/31 13:44:46;;;;;;;7.57;2.30;;;;;;;;;;5021513;28;20536;-75
2021/03/31 13:47:18;;;;;;;8.30;1.98;;;;;;;;;;5025302;28;20061;-72
2021/03/31 13:50:03;;;;;;;8.20;2.10;;;;;;;;;;5011222;28;20496;-73
2021/03/31 13:52:36;;;;;;;11.75;3.03;;;;;;;;;;5008463;28;20076;-73
2021/03/31 13:55:06;;;;;;;4.38;2.03;;;;;;;;;;5007056;28;20050;-73
2021/03/31 13:57:36;;;;;;;7.32;1.77;;;;;;;;;;5012654;28;20095;-72
2021/03/31 14:00:04;;;;;;;5.88;1.80;;;;;;;;;;5009955;28;20045;-75
2021/03/31 14:02:31;;;;;;;11.40;2.00;;;;;;;;;;5005646;28;20710;-72
2021/03/31 14:04:57;;;;;;;8.38;2.47;;;;;;;;;;5007779;28;20762;-76
2021/03/31 14:07:23;;;;;;;9.45;2.58;;;;;;;;;;5002923;28;20042;-73
2021/03/31 14:09:51;;;;;;;11.02;2.17;;;;;;;;;;5004747;28;20041;-73
2021/03/31 14:12:17;;;;;;;11.55;2.53;;;;;;;;;;5017591;28;20045;-73
2021/03/31 14:14:46;;;;;;;10.57;2.20;;;;;;;;;;5008236;28;20048;-75
2021/03/31 14:17:14;;;;;;;11.38;2.00;;;;;;;;;;5005134;28;20065;-72
2021/03/31 14:19:46;;;;;;;17.63;2.35;;;;;;;;;;5007405;28;20095;-74
2021/03/31 14:22:14;;;;;;;13.20;1.92;;;;;;;;;;5005869;28;20091;-72
2021/03/31 14:24:42;;;;;;;12.23;2.78;;;;;;;;;;5001461;28;20046;-74
2021/03/31 14:27:08;;;;;;;6.82;2.38;;;;;;;;;;4985859;28;20051;-74
2021/03/31 14:29:34;;;;;;;11.07;2.10;;;;;;;;;;4986674;28;20038;-72
2021/03/31 14:32:00;;;;;;;14.35;2.78;;;;;;;;;;4985028;28;20042;-72
2021/03/31 14:34:27;;;;;;;4.95;1.98;;;;;;;;;;4986396;28;20050;-73
2021/03/31 14:36:53;;;;;;;8.60;2.65;;;;;;;;;;4986116;28;20046;-73
2021/03/31 14:39:19;;;;;;;9.85;2.47;;;;;;;;;;4986413;28;20081;-77
2021/03/31 14:41:46;;;;;;;8.05;2.55;;;;;;;;;;4985283;28;20648;-76
2021/03/31 14:44:12;;;;;;;5.50;2.20;;;;;;;;;;4993174;28;20046;-76